createdAt,value
2022-08-07T00:01:44.540Z,13.12
2022-08-07T00:02:56.927Z,13.11
2022-08-07T00:03:58.992Z,13.11
2022-08-07T00:05:00.714Z,13.10
2022-08-07T00:06:06.453Z,13.10
2022-08-07T00:07:09.393Z,13.11
2022-08-07T00:08:11.383Z,13.08
2022-08-07T00:09:21.311Z,13.10
2022-08-07T00:10:25.843Z,13.10
2022-08-07T00:11:32.956Z,13.10
2022-08-07T00:12:34.977Z,13.10
2022-08-07T00:13:57.314Z,13.08
2022-08-07T00:15:01.084Z,13.07
2022-08-07T00:16:05.259Z,13.06
2022-08-07T00:17:09.269Z,13.03
2022-08-07T00:18:19.889Z,13.01
2022-08-07T00:20:00.188Z,12.99
2022-08-07T00:20:51.417Z,12.95
2022-08-07T00:21:57.481Z,12.91
2022-08-07T00:23:08.063Z,12.88
2022-08-07T00:24:11.350Z,12.85
2022-08-07T00:25:17.263Z,12.83
2022-08-07T00:26:58.909Z,12.82
2022-08-07T00:27:53.404Z,12.80
2022-08-07T00:28:58.266Z,12.80
2022-08-07T00:29:59.930Z,12.79
2022-08-07T00:31:12.328Z,12.79
2022-08-07T00:32:14.950Z,12.78
2022-08-07T00:33:17.768Z,12.77
2022-08-07T00:34:19.608Z,12.76
2022-08-07T00:35:24.499Z,12.76
2022-08-07T00:36:26.300Z,12.74
2022-08-07T00:37:30.946Z,12.73
2022-08-07T00:38:50.403Z,12.72
2022-08-07T00:39:56.040Z,12.71
2022-08-07T00:40:58.421Z,12.69
2022-08-07T00:42:05.276Z,12.67
2022-08-07T00:43:09.653Z,12.66
2022-08-07T00:44:12.367Z,12.64
2022-08-07T00:45:17.007Z,12.65
2022-08-07T00:46:19.207Z,12.64
2022-08-07T00:48:09.378Z,12.64
2022-08-07T00:48:43.386Z,12.64
2022-08-07T00:50:19.653Z,12.63
2022-08-07T00:51:08.311Z,12.63
2022-08-07T00:52:10.374Z,12.61
2022-08-07T00:53:13.626Z,12.61
2022-08-07T00:54:19.841Z,12.59
2022-08-07T00:55:25.325Z,12.57
2022-08-07T00:56:44.677Z,12.57
2022-08-07T00:57:55.366Z,12.56
2022-08-07T00:58:59.066Z,12.56
2022-08-07T01:00:01.219Z,12.54
2022-08-07T01:01:04.940Z,12.53
2022-08-07T01:02:14.093Z,12.53
2022-08-07T01:03:57.201Z,12.53
2022-08-07T01:04:53.602Z,12.52
2022-08-07T01:06:01.327Z,12.51
2022-08-07T01:07:04.655Z,12.52
2022-08-07T01:08:06.567Z,12.52
2022-08-07T01:09:11.877Z,12.52
2022-08-07T01:10:33.767Z,12.53
2022-08-07T01:12:27.623Z,12.53
2022-08-07T01:12:59.790Z,12.53
2022-08-07T01:14:02.405Z,12.53
2022-08-07T01:15:06.511Z,12.52
2022-08-07T01:16:15.132Z,12.51
2022-08-07T01:17:34.584Z,12.50
2022-08-07T01:18:38.046Z,12.50
2022-08-07T01:19:42.025Z,12.49
2022-08-07T01:21:17.516Z,12.47
2022-08-07T01:22:29.437Z,12.45
2022-08-07T01:23:36.886Z,12.43
2022-08-07T01:24:44.150Z,12.42
2022-08-07T01:25:55.786Z,12.42
2022-08-07T01:27:00.010Z,12.41
2022-08-07T01:28:02.471Z,12.41
2022-08-07T01:29:04.806Z,12.40
2022-08-07T01:30:08.222Z,12.39
2022-08-07T01:31:15.420Z,12.38
2022-08-07T01:32:22.503Z,12.36
2022-08-07T01:33:30.198Z,12.35
2022-08-07T01:34:49.387Z,12.34
2022-08-07T01:35:53.783Z,12.33
2022-08-07T01:37:00.462Z,12.31
2022-08-07T01:38:04.217Z,12.28
2022-08-07T01:39:09.982Z,12.27
2022-08-07T01:40:19.496Z,12.26
2022-08-07T01:41:29.779Z,12.25
2022-08-07T01:42:38.251Z,12.24
2022-08-07T01:43:44.080Z,12.23
2022-08-07T01:44:48.064Z,12.24
2022-08-07T01:45:54.620Z,12.24
2022-08-07T01:46:58.490Z,12.25
2022-08-07T01:48:19.102Z,12.25
2022-08-07T01:49:24.033Z,12.25
2022-08-07T01:50:30.482Z,12.25
2022-08-07T01:52:03.418Z,12.24
2022-08-07T01:52:58.536Z,12.23
2022-08-07T01:54:12.784Z,12.23
2022-08-07T01:55:39.619Z,12.22
2022-08-07T01:56:49.711Z,12.21
2022-08-07T01:58:06.921Z,12.20
2022-08-07T01:59:30.865Z,12.20
2022-08-07T02:00:49.069Z,12.19
2022-08-07T02:02:02.433Z,12.18
2022-08-07T02:03:22.038Z,12.17
2022-08-07T02:04:56.334Z,12.16
2022-08-07T02:06:08.826Z,12.14
2022-08-07T02:07:50.039Z,12.13
2022-08-07T02:09:03.686Z,12.12
2022-08-07T02:10:09.135Z,12.10
2022-08-07T02:11:30.733Z,12.09
2022-08-07T02:12:42.506Z,12.08
2022-08-07T02:14:00.754Z,12.05
2022-08-07T02:15:08.227Z,12.03
2022-08-07T02:16:16.059Z,12.01
2022-08-07T02:17:27.555Z,11.99
2022-08-07T02:18:38.312Z,11.97
2022-08-07T02:20:04.739Z,11.94
2022-08-07T02:21:16.050Z,11.93
2022-08-07T02:22:20.728Z,11.92
2022-08-07T02:23:30.461Z,11.89
2022-08-07T02:24:39.347Z,11.88
2022-08-07T02:26:30.571Z,11.86
2022-08-07T02:27:14.142Z,11.86
2022-08-07T02:28:24.606Z,11.85
2022-08-07T02:29:30.675Z,11.84
2022-08-07T02:30:36.449Z,11.82
2022-08-07T02:31:39.905Z,11.81
2022-08-07T02:33:03.939Z,11.80
2022-08-07T02:34:11.479Z,11.78
2022-08-07T02:36:28.290Z,11.77
2022-08-07T02:36:50.373Z,11.76
2022-08-07T02:37:56.189Z,11.77
2022-08-07T02:39:01.557Z,11.77
2022-08-07T02:40:30.020Z,11.79
2022-08-07T02:41:36.982Z,11.81
2022-08-07T02:42:40.565Z,11.81
2022-08-07T02:43:48.921Z,11.81
2022-08-07T02:44:54.918Z,11.81
2022-08-07T02:46:04.426Z,11.80
2022-08-07T02:47:19.884Z,11.79
2022-08-07T02:48:26.968Z,11.77
2022-08-07T02:49:56.452Z,11.76
2022-08-07T02:50:56.366Z,11.74
2022-08-07T02:52:04.097Z,11.73
2022-08-07T02:53:12.083Z,11.71
2022-08-07T02:54:18.122Z,11.69
2022-08-07T02:55:27.736Z,11.68
2022-08-07T02:56:47.901Z,11.67
2022-08-07T02:57:52.368Z,11.67
2022-08-07T02:58:55.513Z,11.67
2022-08-07T03:00:01.258Z,11.67
2022-08-07T03:01:18.478Z,11.67
2022-08-07T03:02:21.615Z,11.67
2022-08-07T03:03:29.652Z,11.67
2022-08-07T03:04:54.944Z,11.65
2022-08-07T03:05:57.890Z,11.64
2022-08-07T03:07:07.360Z,11.64
2022-08-07T03:08:14.138Z,11.63
2022-08-07T03:09:43.200Z,11.62
2022-08-07T03:10:47.030Z,11.62
2022-08-07T03:11:57.913Z,11.62
2022-08-07T03:13:07.128Z,11.62
2022-08-07T03:14:11.570Z,11.62
2022-08-07T03:15:13.980Z,11.62
2022-08-07T03:16:36.749Z,11.63
2022-08-07T03:17:52.810Z,11.63
2022-08-07T03:18:57.473Z,11.64
2022-08-07T03:20:00.648Z,11.64
2022-08-07T03:21:08.491Z,11.64
2022-08-07T03:22:18.913Z,11.64
2022-08-07T03:23:21.893Z,11.63
2022-08-07T03:24:36.718Z,11.62
2022-08-07T03:25:41.999Z,11.61
2022-08-07T03:26:51.298Z,11.60
2022-08-07T03:28:09.536Z,11.60
2022-08-07T03:29:30.443Z,11.60
2022-08-07T03:30:33.703Z,11.60
2022-08-07T03:31:42.649Z,11.60
2022-08-07T03:32:58.519Z,11.59
2022-08-07T03:34:03.419Z,11.60
2022-08-07T03:35:17.472Z,11.60
2022-08-07T03:36:25.845Z,11.60
2022-08-07T03:37:32.528Z,11.60
2022-08-07T03:38:41.389Z,11.60
2022-08-07T03:39:59.128Z,11.62
2022-08-07T03:41:03.798Z,11.63
2022-08-07T03:42:07.484Z,11.63
2022-08-07T03:43:14.639Z,11.64
2022-08-07T03:44:21.769Z,11.65
2022-08-07T03:45:43.273Z,11.66
2022-08-07T03:47:11.004Z,11.67
2022-08-07T03:48:11.504Z,11.69
2022-08-07T03:49:13.782Z,11.71
2022-08-07T03:50:23.413Z,11.74
2022-08-07T03:51:31.039Z,11.75
2022-08-07T03:52:51.890Z,11.79
2022-08-07T03:54:33.856Z,11.81
2022-08-07T03:55:17.650Z,11.83
2022-08-07T03:56:32.773Z,11.85
2022-08-07T03:58:32.707Z,11.87
2022-08-07T03:59:09.576Z,11.89
2022-08-07T04:00:18.297Z,11.90
2022-08-07T04:01:26.997Z,11.93
2022-08-07T04:02:29.365Z,11.95
2022-08-07T04:03:38.867Z,11.96
2022-08-07T04:04:55.182Z,11.98
2022-08-07T04:06:00.461Z,12.01
2022-08-07T04:07:02.679Z,12.02
2022-08-07T04:08:21.343Z,12.05
2022-08-07T04:09:24.387Z,12.07
2022-08-07T04:10:31.142Z,12.09
2022-08-07T04:12:27.639Z,12.11
2022-08-07T04:12:57.470Z,12.13
2022-08-07T04:14:10.970Z,12.15
2022-08-07T04:15:24.203Z,12.16
2022-08-07T04:16:30.870Z,12.17
2022-08-07T04:18:56.632Z,12.18
2022-08-07T04:19:01.623Z,12.21
2022-08-07T04:20:11.223Z,12.24
2022-08-07T04:21:13.222Z,12.26
2022-08-07T04:22:18.926Z,12.30
2022-08-07T04:23:21.664Z,12.34
2022-08-07T04:24:30.508Z,12.38
2022-08-07T04:25:39.383Z,12.43
2022-08-07T04:26:43.619Z,12.49
2022-08-07T04:27:59.491Z,12.54
2022-08-07T04:29:04.339Z,12.58
2022-08-07T04:30:11.829Z,12.63
2022-08-07T04:31:39.043Z,12.71
2022-08-07T04:32:58.210Z,12.79
2022-08-07T04:34:01.823Z,12.83
2022-08-07T04:35:06.431Z,12.89
2022-08-07T04:36:14.821Z,12.94
2022-08-07T04:37:30.617Z,13.00
2022-08-07T04:38:40.627Z,13.08
2022-08-07T04:39:47.856Z,13.13
2022-08-07T04:40:56.569Z,13.19
2022-08-07T04:42:04.013Z,13.26
2022-08-07T04:43:06.606Z,13.31
2022-08-07T04:44:18.473Z,13.35
2022-08-07T04:45:57.406Z,13.40
2022-08-07T04:47:56.676Z,13.49
2022-08-07T04:49:17.768Z,13.57
2022-08-07T04:50:32.431Z,13.65
2022-08-07T04:52:10.398Z,13.70
2022-08-07T04:53:40.126Z,13.76
2022-08-07T04:54:50.677Z,13.82
2022-08-07T04:58:15.191Z,13.98
2022-08-07T04:58:15.884Z,13.90
2022-08-07T05:00:09.666Z,14.11
2022-08-07T05:01:02.711Z,14.21
2022-08-07T05:02:16.670Z,14.27
2022-08-07T05:04:07.737Z,14.34
2022-08-07T05:05:52.077Z,14.45
2022-08-07T05:07:19.839Z,14.50
2022-08-07T05:08:59.782Z,14.56
2022-08-07T05:09:55.194Z,14.61
2022-08-07T05:11:07.212Z,14.63
2022-08-07T05:12:27.255Z,14.65
2022-08-07T05:14:56.174Z,14.68
2022-08-07T05:15:23.182Z,14.72
2022-08-07T05:16:33.185Z,14.78
2022-08-07T05:17:52.577Z,14.81
2022-08-07T05:19:08.777Z,14.84
2022-08-07T05:20:16.139Z,14.88
2022-08-07T05:21:59.228Z,14.93
2022-08-07T05:22:52.942Z,15.00
2022-08-07T05:23:59.826Z,15.03
2022-08-07T05:25:02.698Z,15.05
2022-08-07T05:26:23.638Z,15.08
2022-08-07T05:28:15.862Z,15.11
2022-08-07T05:28:57.737Z,15.14
2022-08-07T05:30:03.674Z,15.16
2022-08-07T05:31:08.435Z,15.17
2022-08-07T05:32:12.861Z,15.18
2022-08-07T05:33:17.987Z,15.20
2022-08-07T05:34:26.378Z,15.22
2022-08-07T05:35:41.952Z,15.26
2022-08-07T05:36:48.979Z,15.30
2022-08-07T05:38:08.678Z,15.38
2022-08-07T05:40:06.792Z,15.43
2022-08-07T05:40:41.874Z,15.45
2022-08-07T05:42:00.750Z,15.45
2022-08-07T05:43:05.757Z,15.46
2022-08-07T05:44:13.966Z,15.49
2022-08-07T05:45:28.085Z,15.53
2022-08-07T05:46:44.548Z,15.54
2022-08-07T05:48:01.843Z,15.53
2022-08-07T05:49:14.413Z,15.51
2022-08-07T05:50:18.636Z,15.51
2022-08-07T05:51:22.522Z,15.52
2022-08-07T05:52:30.054Z,15.53
2022-08-07T05:54:12.272Z,15.52
2022-08-07T05:54:58.772Z,15.50
2022-08-07T05:56:10.038Z,15.48
2022-08-07T05:57:17.889Z,15.48
2022-08-07T05:58:36.146Z,15.48
2022-08-07T05:59:57.179Z,15.47
2022-08-07T06:01:04.974Z,15.47
2022-08-07T06:02:13.841Z,15.48
2022-08-07T06:03:23.697Z,15.49
2022-08-07T06:04:30.200Z,15.48
2022-08-07T06:05:34.510Z,15.49
2022-08-07T06:06:46.088Z,15.51
2022-08-07T06:08:29.165Z,15.53
2022-08-07T06:09:14.794Z,15.58
2022-08-07T06:10:19.635Z,15.59
2022-08-07T06:11:22.833Z,15.59
2022-08-07T06:12:31.882Z,15.65
2022-08-07T06:14:11.850Z,15.71
2022-08-07T06:15:05.543Z,15.73
2022-08-07T06:16:10.159Z,15.77
2022-08-07T06:17:15.534Z,15.83
2022-08-07T06:18:21.572Z,15.87
2022-08-07T06:19:49.890Z,15.93
2022-08-07T06:20:51.051Z,16.00
2022-08-07T06:22:14.543Z,16.06
2022-08-07T06:24:38.095Z,16.12
2022-08-07T06:24:57.016Z,16.18
2022-08-07T06:26:01.484Z,16.23
2022-08-07T06:27:04.730Z,16.29
2022-08-07T06:28:09.630Z,16.33
2022-08-07T06:29:15.842Z,16.38
2022-08-07T06:30:32.196Z,16.43
2022-08-07T06:31:49.790Z,16.51
2022-08-07T06:32:53.019Z,16.58
2022-08-07T06:33:55.623Z,16.61
2022-08-07T06:35:00.620Z,16.62
2022-08-07T06:36:06.774Z,16.65
2022-08-07T06:37:43.478Z,16.74
2022-08-07T06:38:59.515Z,16.81
2022-08-07T06:40:16.130Z,16.84
2022-08-07T06:42:01.819Z,16.86
2022-08-07T06:42:53.602Z,16.90
2022-08-07T06:44:25.853Z,16.97
2022-08-07T06:45:35.796Z,17.04
2022-08-07T06:46:40.655Z,17.08
2022-08-07T06:47:47.983Z,17.12
2022-08-07T06:48:59.053Z,17.13
2022-08-07T06:50:01.715Z,17.10
2022-08-07T06:51:15.392Z,17.07
2022-08-07T06:52:35.255Z,17.01
2022-08-07T06:55:28.485Z,16.93
2022-08-07T06:55:31.896Z,16.92
2022-08-07T06:56:48.500Z,16.90
2022-08-07T06:58:06.248Z,16.89
2022-08-07T07:00:12.199Z,16.90
2022-08-07T07:00:46.332Z,16.96
2022-08-07T07:01:51.075Z,16.96
2022-08-07T07:03:00.606Z,16.92
2022-08-07T07:04:32.435Z,16.85
2022-08-07T07:06:03.845Z,16.81
2022-08-07T07:07:00.158Z,16.79
2022-08-07T07:08:06.656Z,16.80
2022-08-07T07:09:25.580Z,16.84
2022-08-07T07:10:35.107Z,16.92
2022-08-07T07:12:07.792Z,17.00
2022-08-07T07:13:13.223Z,17.01
2022-08-07T07:14:18.519Z,17.03
2022-08-07T07:15:35.733Z,17.04
2022-08-07T07:16:49.495Z,17.08
2022-08-07T07:18:05.548Z,17.14
2022-08-07T07:19:56.870Z,17.21
2022-08-07T07:20:50.252Z,17.28
2022-08-07T07:22:04.760Z,17.37
2022-08-07T07:24:09.133Z,17.34
2022-08-07T07:24:39.170Z,17.20
2022-08-07T07:26:32.840Z,17.14
2022-08-07T07:27:16.111Z,17.11
2022-08-07T07:28:42.131Z,17.12
2022-08-07T07:30:07.559Z,17.16
2022-08-07T07:31:21.440Z,17.20
2022-08-07T07:32:25.747Z,17.25
2022-08-07T07:33:30.605Z,17.31
2022-08-07T07:34:36.545Z,17.35
2022-08-07T07:36:04.965Z,17.42
2022-08-07T07:37:21.635Z,17.47
2022-08-07T07:38:32.882Z,17.49
2022-08-07T07:39:52.015Z,17.54
2022-08-07T07:41:02.733Z,17.58
2022-08-07T07:42:13.486Z,17.61
2022-08-07T07:43:18.752Z,17.71
2022-08-07T07:44:33.552Z,17.81
2022-08-07T07:46:36.587Z,17.86
2022-08-07T07:47:15.922Z,17.89
2022-08-07T07:48:35.223Z,17.90
2022-08-07T07:50:32.646Z,17.92
2022-08-07T07:51:07.839Z,17.92
2022-08-07T07:52:13.174Z,17.91
2022-08-07T07:53:23.078Z,17.92
2022-08-07T07:54:30.690Z,17.93
2022-08-07T07:55:37.630Z,17.97
2022-08-07T07:56:49.492Z,17.97
2022-08-07T07:57:58.253Z,18.01
2022-08-07T07:59:03.265Z,18.12
2022-08-07T08:00:09.447Z,18.22
2022-08-07T08:02:01.812Z,18.31
2022-08-07T08:03:05.091Z,18.42
2022-08-07T08:04:11.551Z,18.56
2022-08-07T08:05:18.067Z,18.67
2022-08-07T08:06:26.721Z,18.74
2022-08-07T08:07:35.700Z,18.79
2022-08-07T08:08:46.176Z,18.87
2022-08-07T08:10:04.979Z,18.94
2022-08-07T08:11:16.489Z,18.97
2022-08-07T08:12:51.520Z,18.95
2022-08-07T08:13:55.850Z,18.98
2022-08-07T08:14:57.883Z,19.04
2022-08-07T08:16:02.732Z,19.10
2022-08-07T08:17:55.554Z,19.16
2022-08-07T08:18:31.214Z,19.10
2022-08-07T08:20:19.429Z,18.95
2022-08-07T08:21:02.948Z,18.72
2022-08-07T08:22:32.633Z,18.63
2022-08-07T08:23:55.144Z,18.59
2022-08-07T08:25:26.283Z,18.60
2022-08-07T08:27:00.249Z,18.60
2022-08-07T08:28:04.541Z,18.62
2022-08-07T08:29:08.411Z,18.67
2022-08-07T08:30:14.249Z,18.75
2022-08-07T08:31:59.050Z,18.89
2022-08-07T08:32:56.036Z,19.07
2022-08-07T08:34:01.508Z,19.14
2022-08-07T08:35:08.619Z,19.06
2022-08-07T08:36:13.440Z,18.99
2022-08-07T08:38:00.650Z,18.96
2022-08-07T08:38:48.251Z,18.94
2022-08-07T08:39:55.139Z,18.95
2022-08-07T08:41:22.978Z,19.00
2022-08-07T08:42:43.446Z,19.00
2022-08-07T08:43:59.542Z,19.05
2022-08-07T08:45:05.622Z,19.19
2022-08-07T08:46:21.971Z,19.30
2022-08-07T08:47:34.378Z,19.30
2022-08-07T08:49:16.554Z,19.29
2022-08-07T08:50:39.628Z,19.21
2022-08-07T08:52:14.041Z,19.20
2022-08-07T08:53:45.883Z,19.17
2022-08-07T08:55:01.059Z,19.22
2022-08-07T08:56:12.154Z,19.27
2022-08-07T08:57:30.272Z,19.24
2022-08-07T08:58:43.600Z,19.20
2022-08-07T08:59:50.198Z,19.24
2022-08-07T09:01:01.046Z,19.22
2022-08-07T09:02:49.348Z,19.19
2022-08-07T09:04:30.199Z,19.24
2022-08-07T09:05:50.573Z,19.29
2022-08-07T09:07:14.401Z,19.30
2022-08-07T09:08:29.035Z,19.26
2022-08-07T09:10:00.006Z,19.27
2022-08-07T09:11:24.703Z,19.37
2022-08-07T09:13:18.244Z,19.49
2022-08-07T09:14:34.032Z,19.59
2022-08-07T09:16:20.523Z,19.62
2022-08-07T09:17:59.249Z,19.62
2022-08-07T09:18:58.554Z,19.66
2022-08-07T09:20:37.148Z,19.70
2022-08-07T09:22:09.725Z,19.82
2022-08-07T09:24:32.049Z,19.90
2022-08-07T09:25:14.561Z,20.04
2022-08-07T09:26:31.543Z,20.20
2022-08-07T09:28:00.459Z,20.41
2022-08-07T09:30:05.999Z,20.72
2022-08-07T09:30:52.906Z,20.93
2022-08-07T09:32:33.660Z,21.05
2022-08-07T09:34:18.097Z,21.16
2022-08-07T09:36:01.077Z,21.15
2022-08-07T09:37:21.170Z,20.91
2022-08-07T09:38:54.754Z,20.68
2022-08-07T09:40:08.890Z,20.67
2022-08-07T09:41:58.886Z,20.82
2022-08-07T09:44:06.585Z,21.10
2022-08-07T09:47:23.589Z,21.36
2022-08-07T09:47:42.523Z,21.51
2022-08-07T09:50:03.979Z,21.62
2022-08-07T09:50:39.991Z,21.81
2022-08-07T09:52:33.634Z,21.89
2022-08-07T09:53:47.961Z,21.93
2022-08-07T09:55:17.247Z,21.92
2022-08-07T09:56:46.739Z,22.02
2022-08-07T09:58:38.737Z,22.11
2022-08-07T10:00:05.607Z,21.99
2022-08-07T10:01:53.421Z,21.82
2022-08-07T10:04:05.725Z,21.43
2022-08-07T10:05:16.160Z,20.88
2022-08-07T10:06:49.100Z,20.52
2022-08-07T10:08:28.369Z,20.15
2022-08-07T10:10:00.608Z,19.88
2022-08-07T10:11:59.753Z,19.62
2022-08-07T10:13:54.938Z,19.44
2022-08-07T10:15:15.353Z,19.55
2022-08-07T10:16:34.305Z,19.82
2022-08-07T10:18:03.438Z,20.00
2022-08-07T10:19:11.259Z,20.11
2022-08-07T10:20:39.703Z,20.26
2022-08-07T10:22:33.269Z,20.50
2022-08-07T10:24:10.023Z,20.71
2022-08-07T10:25:44.176Z,20.73
2022-08-07T10:26:53.340Z,20.81
2022-08-07T10:28:23.502Z,20.94
2022-08-07T10:29:39.363Z,21.06
2022-08-07T10:31:10.974Z,21.11
2022-08-07T10:32:52.252Z,21.12
2022-08-07T10:34:15.111Z,21.19
2022-08-07T10:35:55.262Z,21.38
2022-08-07T10:38:00.106Z,21.67
2022-08-07T10:39:05.450Z,21.94
2022-08-07T10:40:21.760Z,22.02
2022-08-07T10:41:46.357Z,21.96
2022-08-07T10:42:58.245Z,21.87
2022-08-07T10:44:39.168Z,21.81
2022-08-07T10:45:58.058Z,21.81
2022-08-07T10:47:11.957Z,21.89
2022-08-07T10:48:24.489Z,21.92
2022-08-07T10:49:51.240Z,21.80
2022-08-07T10:51:06.376Z,21.68
2022-08-07T10:52:31.713Z,21.67
2022-08-07T10:53:47.472Z,21.75
2022-08-07T10:55:27.001Z,21.80
2022-08-07T10:56:58.650Z,22.07
2022-08-07T10:58:15.812Z,22.27
2022-08-07T10:59:57.885Z,22.34
2022-08-07T11:01:35.507Z,22.49
2022-08-07T11:03:17.065Z,22.77
2022-08-07T11:04:32.043Z,22.88
2022-08-07T11:06:02.735Z,23.03
2022-08-07T11:07:56.175Z,23.35
2022-08-07T11:08:54.705Z,23.65
2022-08-07T11:10:08.831Z,23.77
2022-08-07T11:11:25.754Z,23.70
2022-08-07T11:12:43.168Z,23.45
2022-08-07T11:14:56.623Z,23.15
2022-08-07T11:15:54.391Z,22.55
2022-08-07T11:17:02.136Z,22.15
2022-08-07T11:18:25.079Z,21.83
2022-08-07T11:19:45.652Z,21.54
2022-08-07T11:21:20.237Z,21.31
2022-08-07T11:22:37.114Z,21.17
2022-08-07T11:24:20.018Z,21.45
2022-08-07T11:25:50.056Z,21.90
2022-08-07T11:27:20.643Z,22.36
2022-08-07T11:28:55.180Z,22.77
2022-08-07T11:30:18.636Z,23.13
2022-08-07T11:31:27.001Z,23.56
2022-08-07T11:32:40.610Z,23.80
2022-08-07T11:33:59.393Z,24.00
2022-08-07T11:35:16.679Z,24.17
2022-08-07T11:36:35.875Z,24.22
2022-08-07T11:37:58.146Z,23.95
2022-08-07T11:39:58.889Z,23.53
2022-08-07T11:41:18.270Z,22.92
2022-08-07T11:42:37.536Z,22.33
2022-08-07T11:44:12.614Z,21.97
2022-08-07T11:45:55.296Z,21.54
2022-08-07T11:47:04.453Z,21.17
2022-08-07T11:48:44.171Z,21.02
2022-08-07T11:50:30.380Z,20.78
2022-08-07T11:51:41.501Z,20.73
2022-08-07T11:53:08.919Z,21.06
2022-08-07T11:54:31.482Z,21.74
2022-08-07T11:56:15.765Z,22.52
2022-08-07T11:58:00.640Z,23.30
2022-08-07T12:00:07.623Z,23.68
2022-08-07T12:01:01.855Z,23.38
2022-08-07T12:02:52.573Z,22.84
2022-08-07T12:04:34.133Z,22.17
2022-08-07T12:05:49.489Z,21.64
2022-08-07T12:07:08.048Z,21.33
2022-08-07T12:08:25.968Z,21.04
2022-08-07T12:09:46.140Z,20.83
2022-08-07T12:11:20.402Z,20.67
2022-08-07T12:12:34.687Z,20.87
2022-08-07T12:13:53.760Z,21.32
2022-08-07T12:15:08.213Z,21.83
2022-08-07T12:16:31.641Z,22.30
2022-08-07T12:17:59.422Z,22.63
2022-08-07T12:19:22.017Z,23.06
2022-08-07T12:20:30.707Z,23.58
2022-08-07T12:22:39.575Z,24.04
2022-08-07T12:24:06.305Z,24.49
2022-08-07T12:26:21.875Z,24.76
2022-08-07T12:27:18.541Z,25.23
2022-08-07T12:29:00.735Z,25.50
2022-08-07T12:30:08.914Z,25.81
2022-08-07T12:31:52.492Z,25.95
2022-08-07T12:33:18.763Z,26.06
2022-08-07T12:34:31.783Z,26.09
2022-08-07T12:35:36.565Z,26.19
2022-08-07T12:36:42.294Z,26.29
2022-08-07T12:38:09.313Z,26.37
2022-08-07T12:39:43.981Z,26.47
2022-08-07T12:40:47.072Z,26.61
2022-08-07T12:41:53.574Z,26.73
2022-08-07T12:43:01.765Z,26.73
2022-08-07T12:44:12.906Z,26.46
2022-08-07T12:45:27.299Z,26.13
2022-08-07T12:46:48.817Z,25.88
2022-08-07T12:48:28.510Z,25.78
2022-08-07T12:50:33.971Z,25.80
2022-08-07T12:51:51.397Z,26.03
2022-08-07T12:53:22.406Z,26.17
2022-08-07T12:54:38.097Z,26.41
2022-08-07T12:56:03.010Z,26.61
2022-08-07T12:57:10.290Z,26.80
2022-08-07T12:58:16.388Z,26.82
2022-08-07T12:59:33.005Z,26.81
2022-08-07T13:00:50.139Z,26.87
2022-08-07T13:02:01.314Z,27.14
2022-08-07T13:03:56.279Z,27.28
2022-08-07T13:06:03.240Z,27.31
2022-08-07T13:08:14.096Z,27.79
2022-08-07T13:10:20.115Z,28.26
2022-08-07T13:10:59.960Z,28.29
2022-08-07T13:12:29.087Z,27.99
2022-08-07T13:13:53.790Z,27.71
2022-08-07T13:15:34.482Z,27.60
2022-08-07T13:17:09.412Z,26.86
2022-08-07T13:18:28.332Z,25.88
2022-08-07T13:19:35.145Z,25.28
2022-08-07T13:21:00.969Z,25.12
2022-08-07T13:22:19.791Z,24.66
2022-08-07T13:24:01.752Z,24.26
2022-08-07T13:25:15.222Z,24.00
2022-08-07T13:26:35.058Z,24.20
2022-08-07T13:28:11.458Z,24.39
2022-08-07T13:29:42.382Z,24.68
2022-08-07T13:31:02.147Z,24.88
2022-08-07T13:32:32.493Z,25.03
2022-08-07T13:34:30.139Z,25.35
2022-08-07T13:35:59.818Z,25.90
2022-08-07T13:37:21.711Z,26.80
2022-08-07T13:38:34.811Z,27.38
2022-08-07T13:40:33.353Z,27.78
2022-08-07T13:41:48.374Z,27.74
2022-08-07T13:42:54.224Z,27.56
2022-08-07T13:44:02.415Z,27.40
2022-08-07T13:46:06.434Z,27.37
2022-08-07T13:46:41.829Z,27.41
2022-08-07T13:48:08.106Z,27.42
2022-08-07T13:50:33.870Z,27.48
2022-08-07T13:50:45.267Z,27.70
2022-08-07T13:52:31.614Z,27.85
2022-08-07T13:53:59.620Z,27.72
2022-08-07T13:55:06.480Z,27.61
2022-08-07T13:56:09.869Z,27.60
2022-08-07T13:57:24.094Z,27.72
2022-08-07T13:59:12.142Z,27.94
2022-08-07T14:00:26.892Z,28.13
2022-08-07T14:01:33.512Z,28.16
2022-08-07T14:02:58.647Z,28.05
2022-08-07T14:04:16.758Z,28.10
2022-08-07T14:05:28.987Z,28.28
2022-08-07T14:06:43.545Z,28.59
2022-08-07T14:08:01.022Z,28.99
2022-08-07T14:09:09.823Z,29.07
2022-08-07T14:10:24.709Z,28.97
2022-08-07T14:11:53.717Z,29.02
2022-08-07T14:13:03.725Z,28.88
2022-08-07T14:14:15.550Z,28.74
2022-08-07T14:15:35.944Z,28.50
2022-08-07T14:16:49.816Z,28.11
2022-08-07T14:18:27.964Z,27.80
2022-08-07T14:20:43.428Z,27.35
2022-08-07T14:22:36.023Z,26.43
2022-08-07T14:22:41.098Z,26.96
2022-08-07T14:24:01.107Z,26.19
2022-08-07T14:25:17.121Z,25.48
2022-08-07T14:26:31.800Z,24.91
2022-08-07T14:28:12.251Z,24.46
2022-08-07T14:30:06.728Z,24.29
2022-08-07T14:30:32.970Z,24.61
2022-08-07T14:31:42.900Z,24.89
2022-08-07T14:32:58.051Z,25.11
2022-08-07T14:34:01.635Z,25.30
2022-08-07T14:35:43.038Z,25.64
2022-08-07T14:36:42.199Z,26.30
2022-08-07T14:38:03.243Z,26.64
2022-08-07T14:39:12.497Z,26.98
2022-08-07T14:40:35.354Z,27.43
2022-08-07T14:42:18.439Z,27.70
2022-08-07T14:43:58.663Z,28.14
2022-08-07T14:44:38.976Z,28.45
2022-08-07T14:45:49.493Z,28.50
2022-08-07T14:47:14.156Z,28.60
2022-08-07T14:48:20.732Z,28.74
2022-08-07T14:50:55.808Z,28.73
2022-08-07T14:54:03.735Z,28.89
2022-08-07T14:54:54.063Z,29.05
2022-08-07T14:56:00.931Z,29.17
2022-08-07T14:57:09.714Z,29.35
2022-08-07T14:58:24.154Z,29.65
2022-08-07T15:00:04.770Z,29.82
2022-08-07T15:00:52.636Z,29.87
2022-08-07T15:01:58.722Z,29.65
2022-08-07T15:03:16.394Z,29.40
2022-08-07T15:04:25.229Z,29.10
2022-08-07T15:05:30.356Z,28.92
2022-08-07T15:06:35.466Z,29.01
2022-08-07T15:07:47.642Z,29.18
2022-08-07T15:10:19.749Z,29.56
2022-08-07T15:11:53.380Z,29.54
2022-08-07T15:13:00.989Z,29.54
2022-08-07T15:15:52.422Z,30.12
2022-08-07T15:17:01.225Z,30.71
2022-08-07T15:18:14.128Z,31.11
2022-08-07T15:20:23.561Z,31.52
2022-08-07T15:21:03.737Z,31.88
2022-08-07T15:22:23.175Z,31.95
2022-08-07T15:25:14.601Z,31.81
2022-08-07T15:25:17.833Z,31.83
2022-08-07T15:26:31.884Z,31.73
2022-08-07T15:28:18.788Z,31.71
2022-08-07T15:30:04.435Z,31.72
2022-08-07T15:30:31.591Z,31.41
2022-08-07T15:32:02.104Z,31.03
2022-08-07T15:33:04.090Z,30.73
2022-08-07T15:34:14.928Z,30.62
2022-08-07T15:36:01.209Z,30.48
2022-08-07T15:37:04.580Z,30.20
2022-08-07T15:38:17.963Z,29.90
2022-08-07T15:39:56.307Z,29.80
2022-08-07T15:42:43.628Z,29.63
2022-08-07T15:44:04.793Z,29.46
2022-08-07T15:45:14.117Z,29.22
2022-08-07T15:46:32.490Z,28.94
2022-08-07T15:48:01.050Z,28.81
2022-08-07T15:49:14.291Z,29.01
2022-08-07T15:50:37.786Z,29.16
2022-08-07T15:53:11.171Z,29.11
2022-08-07T15:54:15.814Z,29.42
2022-08-07T15:55:20.809Z,29.45
2022-08-07T15:56:34.191Z,29.31
2022-08-07T15:57:47.802Z,29.01
2022-08-07T15:58:59.206Z,28.78
2022-08-07T16:00:06.685Z,28.70
2022-08-07T16:01:24.006Z,28.57
2022-08-07T16:02:46.622Z,28.39
2022-08-07T16:03:57.364Z,28.43
2022-08-07T16:05:04.251Z,28.46
2022-08-07T16:06:30.194Z,28.24
2022-08-07T16:08:31.590Z,27.95
2022-08-07T16:09:14.132Z,27.71
2022-08-07T16:10:29.786Z,27.69
2022-08-07T16:12:03.617Z,27.56
2022-08-07T16:13:57.556Z,27.39
2022-08-07T16:15:55.705Z,27.19
2022-08-07T16:16:56.773Z,26.92
2022-08-07T16:18:02.732Z,26.75
2022-08-07T16:19:20.675Z,26.57
2022-08-07T16:22:02.254Z,26.34
2022-08-07T16:22:34.080Z,26.08
2022-08-07T16:24:02.767Z,25.76
2022-08-07T16:25:54.559Z,25.29
2022-08-07T16:27:04.476Z,24.78
2022-08-07T16:30:08.332Z,24.44
2022-08-07T16:30:29.763Z,24.04
2022-08-07T16:31:50.690Z,23.76
2022-08-07T16:34:02.073Z,23.50
2022-08-07T16:34:50.920Z,23.24
2022-08-07T16:36:31.163Z,23.01
2022-08-07T16:38:03.571Z,22.75
2022-08-07T16:39:33.735Z,22.53
2022-08-07T16:41:13.342Z,22.32
2022-08-07T16:42:38.786Z,22.21
2022-08-07T16:44:05.707Z,22.09
2022-08-07T16:46:47.224Z,21.96
2022-08-07T16:47:38.656Z,21.80
2022-08-07T16:50:28.614Z,21.72
2022-08-07T16:50:52.660Z,21.53
2022-08-07T16:52:51.301Z,21.35